Time;durP1;ratioP1;P1;durP2;ratioP2;P2;SDS_P1;SDS_P2;PMS_P1;PMS_P2;Temp;Humidity;BMP_temperature;BMP_pressure;BME280_temperature;BME280_humidity;BME280_pressure;Samples;Min_cycle;Max_cycle;Signal;HPM_P1;HPM_P2
2022/10/04 00:01:43;;;;;;;16.73;7.03;;;12.40;99.90;;;;;;4970216;28;20372;-74
2022/10/04 00:04:51;;;;;;;14.83;6.97;;;12.30;99.90;;;;;;4956266;28;20285;-74
2022/10/04 00:07:25;;;;;;;14.67;7.43;;;12.30;99.90;;;;;;4965180;28;20352;-75
2022/10/04 00:09:58;;;;;;;16.17;7.33;;;12.30;99.90;;;;;;4975655;28;20805;-74
2022/10/04 00:12:36;;;;;;;14.67;6.70;;;12.30;99.90;;;;;;4975370;28;20318;-74
2022/10/04 00:15:19;;;;;;;13.53;7.03;;;12.30;99.90;;;;;;4981846;28;20412;-74
2022/10/04 00:18:10;;;;;;;15.70;7.37;;;12.30;99.90;;;;;;4952855;28;20793;-74
2022/10/04 00:20:52;;;;;;;18.37;7.53;;;12.30;99.90;;;;;;4953527;28;20306;-74
2022/10/04 00:23:23;;;;;;;15.43;6.87;;;12.30;99.90;;;;;;4963068;28;20289;-74
2022/10/04 00:26:01;;;;;;;15.50;7.17;;;12.20;99.90;;;;;;4977804;28;20289;-75
2022/10/04 00:28:35;;;;;;;16.13;7.00;;;12.20;99.90;;;;;;4948471;28;20633;-74
2022/10/04 00:31:09;;;;;;;15.70;6.88;;;12.20;99.90;;;;;;4951421;28;20360;-74
2022/10/04 00:33:36;;;;;;;16.20;6.87;;;12.20;99.90;;;;;;4952805;28;20510;-74
2022/10/04 00:36:24;;;;;;;17.40;7.47;;;12.20;99.90;;;;;;4956666;28;20290;-74
2022/10/04 00:39:08;;;;;;;17.87;7.07;;;12.20;99.90;;;;;;4964224;28;20340;-74
2022/10/04 00:41:46;;;;;;;12.80;7.20;;;12.20;99.90;;;;;;4955034;28;20350;-74
2022/10/04 00:44:23;;;;;;;13.97;7.80;;;12.20;99.90;;;;;;4956038;28;20310;-73
2022/10/04 00:46:51;;;;;;;17.43;7.30;;;12.10;99.90;;;;;;4956288;28;20322;-74
2022/10/04 00:49:21;;;;;;;16.50;7.60;;;12.20;99.90;;;;;;4977970;28;20368;-74
2022/10/04 00:51:57;;;;;;;24.67;8.73;;;12.10;99.90;;;;;;4954317;28;20368;-74
2022/10/04 00:54:35;;;;;;;14.70;7.23;;;12.10;99.90;;;;;;4956284;28;20294;-74
2022/10/04 00:57:13;;;;;;;14.73;7.20;;;12.10;99.90;;;;;;4976898;28;20290;-74
2022/10/04 00:59:49;;;;;;;13.83;7.47;;;12.10;99.90;;;;;;4971694;28;20294;-74
2022/10/04 01:02:28;;;;;;;15.10;7.10;;;12.10;99.90;;;;;;4959914;28;20306;-74
2022/10/04 01:05:21;;;;;;;18.77;7.40;;;12.10;99.90;;;;;;4957649;28;20407;-74
2022/10/04 01:07:56;;;;;;;15.10;7.87;;;12.10;99.90;;;;;;4953821;28;20282;-73
2022/10/04 01:10:30;;;;;;;13.27;7.20;;;12.10;99.90;;;;;;4955963;28;20281;-74
2022/10/04 01:12:56;;;;;;;15.60;7.23;;;12.00;99.90;;;;;;4958647;28;20650;-74
2022/10/04 01:15:33;;;;;;;12.97;7.10;;;12.00;99.90;;;;;;4965983;28;20278;-74
2022/10/04 01:18:15;;;;;;;17.53;7.70;;;12.00;99.90;;;;;;4978529;28;20462;-73
2022/10/04 01:20:47;;;;;;;15.90;7.50;;;12.00;99.90;;;;;;4973992;28;20397;-73
2022/10/04 01:23:29;;;;;;;13.37;6.47;;;12.00;99.90;;;;;;4961888;28;20286;-74
2022/10/04 01:25:55;;;;;;;16.87;7.10;;;11.90;99.90;;;;;;4990642;28;20286;-74
2022/10/04 01:28:21;;;;;;;13.77;7.07;;;11.90;99.90;;;;;;4961036;28;20300;-74
2022/10/04 01:30:47;;;;;;;15.87;7.73;;;11.80;99.90;;;;;;4940634;28;20109;-74
2022/10/04 01:33:13;;;;;;;15.73;7.43;;;11.80;99.90;;;;;;4964146;28;20050;-74
2022/10/04 01:35:39;;;;;;;16.57;7.20;;;11.70;99.90;;;;;;4977084;28;20393;-74
2022/10/04 01:38:06;;;;;;;13.93;6.90;;;11.60;99.90;;;;;;4982657;28;20050;-74
2022/10/04 01:40:40;;;;;;;15.67;7.33;;;11.50;99.90;;;;;;4958295;28;20514;-74
2022/10/04 01:43:11;;;;;;;13.15;6.50;;;11.40;99.90;;;;;;4969379;28;20335;-74
2022/10/04 01:45:47;;;;;;;15.43;7.33;;;11.30;99.90;;;;;;4956533;28;20042;-74
2022/10/04 01:48:21;;;;;;;21.13;7.70;;;11.30;99.90;;;;;;4954930;28;20369;-74
2022/10/04 01:51:11;;;;;;;15.30;7.03;;;11.20;99.90;;;;;;4968955;28;20344;-73
2022/10/04 01:53:48;;;;;;;14.20;7.87;;;11.10;99.90;;;;;;4951798;28;20347;-74
2022/10/04 01:56:19;;;;;;;13.77;7.40;;;11.00;99.90;;;;;;4971605;28;20294;-73
2022/10/04 01:58:57;;;;;;;16.97;7.10;;;10.90;99.90;;;;;;4975119;28;20649;-73
2022/10/04 02:01:42;;;;;;;14.87;7.90;;;10.90;99.90;;;;;;4942687;28;20833;-74
2022/10/04 02:04:36;;;;;;;18.15;7.18;;;10.80;99.90;;;;;;4983789;28;20365;-74
2022/10/04 02:07:09;;;;;;;16.33;7.10;;;10.70;99.90;;;;;;4976673;28;20070;-73
2022/10/04 02:09:38;;;;;;;16.70;8.23;;;10.70;99.90;;;;;;4967192;28;20297;-74
2022/10/04 02:12:05;;;;;;;13.23;7.80;;;10.60;99.90;;;;;;4970145;28;20329;-74
2022/10/04 02:14:32;;;;;;;18.80;8.90;;;10.60;99.90;;;;;;4951681;28;20628;-74
2022/10/04 02:17:00;;;;;;;16.83;7.27;;;10.50;99.90;;;;;;4977156;28;20747;-73
2022/10/04 02:19:35;;;;;;;14.53;8.03;;;10.50;99.90;;;;;;4951722;28;20761;-73
2022/10/04 02:22:06;;;;;;;20.33;8.35;;;10.40;99.90;;;;;;4953959;28;20714;-74
2022/10/04 02:24:34;;;;;;;14.03;8.57;;;10.40;99.90;;;;;;4975504;28;20039;-73
2022/10/04 02:27:00;;;;;;;16.03;8.07;;;10.30;99.90;;;;;;4953298;28;20859;-74
2022/10/04 02:29:26;;;;;;;15.53;8.27;;;10.30;99.90;;;;;;4971624;28;20324;-74
2022/10/04 02:34:36;;;;;;;15.60;8.68;;;10.20;99.90;;;;;;4977232;28;20054;-74
2022/10/04 02:37:04;;;;;;;19.97;8.10;;;10.20;99.90;;;;;;4934549;28;20047;-74
2022/10/04 02:39:37;;;;;;;18.70;9.20;;;10.20;99.90;;;;;;4959471;28;20321;-73
2022/10/04 02:42:18;;;;;;;14.37;8.30;;;10.20;99.90;;;;;;4950021;28;20386;-73
2022/10/04 02:45:33;;;;;;;16.33;8.23;;;10.10;99.90;;;;;;4961203;28;20663;-74
2022/10/04 02:48:25;;;;;;;17.90;8.90;;;10.10;99.90;;;;;;4913381;28;20383;-73
2022/10/04 02:50:54;;;;;;;19.50;9.90;;;10.10;99.90;;;;;;4962053;28;20381;-74
2022/10/04 02:53:45;;;;;;;18.53;9.23;;;10.00;99.90;;;;;;4970290;28;20289;-74
2022/10/04 02:56:12;;;;;;;19.97;8.90;;;10.00;99.90;;;;;;4965580;28;20370;-73
2022/10/04 02:58:39;;;;;;;22.70;8.98;;;10.00;99.90;;;;;;4966776;28;20365;-73
2022/10/04 03:01:05;;;;;;;21.17;9.03;;;9.90;99.90;;;;;;4943727;28;20384;-74
2022/10/04 03:03:36;;;;;;;17.17;8.98;;;9.90;99.90;;;;;;4970134;28;20615;-74
2022/10/04 03:06:05;;;;;;;17.73;9.18;;;9.90;99.90;;;;;;4970827;28;20039;-73
2022/10/04 03:08:44;;;;;;;15.70;8.80;;;9.90;99.90;;;;;;4973101;28;20093;-73
2022/10/04 03:11:12;;;;;;;20.65;8.82;;;9.80;99.90;;;;;;4940896;28;20282;-73
2022/10/04 03:13:43;;;;;;;17.63;9.68;;;9.80;99.90;;;;;;4973812;28;20057;-73
2022/10/04 03:16:09;;;;;;;18.50;9.07;;;9.80;99.90;;;;;;4953869;28;20133;-73
2022/10/04 03:18:36;;;;;;;14.37;8.83;;;9.70;99.90;;;;;;4973085;28;20074;-73
2022/10/04 03:21:05;;;;;;;20.60;9.40;;;9.70;99.90;;;;;;4953737;28;20051;-73
2022/10/04 03:23:32;;;;;;;19.17;9.63;;;9.70;99.90;;;;;;4940402;28;20707;-74
2022/10/04 03:26:23;;;;;;;27.55;10.70;;;9.70;99.90;;;;;;4971273;28;20120;-73
2022/10/04 03:28:49;;;;;;;23.15;10.65;;;9.60;99.90;;;;;;4974944;28;20042;-73
2022/10/04 03:31:16;;;;;;;20.87;10.20;;;9.60;99.90;;;;;;4917816;28;1099234;-73
2022/10/04 03:33:43;;;;;;;22.15;12.02;;;9.70;99.90;;;;;;4954249;28;20748;-73
2022/10/04 03:36:15;;;;;;;21.10;10.60;;;9.70;99.90;;;;;;4953402;28;20049;-73
2022/10/04 03:38:42;;;;;;;22.52;11.05;;;9.70;99.90;;;;;;4952321;28;20826;-74
2022/10/04 03:41:10;;;;;;;21.92;11.40;;;9.70;99.90;;;;;;4959063;28;20074;-73
2022/10/04 03:43:43;;;;;;;21.73;11.30;;;9.70;99.90;;;;;;4947245;28;20129;-74
2022/10/04 03:46:09;;;;;;;21.77;11.23;;;9.70;99.90;;;;;;4967603;28;20121;-74
2022/10/04 03:48:49;;;;;;;23.43;11.60;;;9.70;99.90;;;;;;4969885;28;20089;-73
2022/10/04 03:51:25;;;;;;;21.65;11.07;;;9.70;99.90;;;;;;4968155;28;20294;-73
2022/10/04 03:53:58;;;;;;;18.67;10.57;;;9.70;99.90;;;;;;4971643;28;20453;-73
2022/10/04 03:56:26;;;;;;;20.52;11.02;;;9.70;99.90;;;;;;4949352;28;20122;-73
2022/10/04 03:58:53;;;;;;;24.98;11.70;;;9.60;99.90;;;;;;4969868;28;20062;-74
2022/10/04 04:01:40;;;;;;;23.83;11.63;;;9.60;99.90;;;;;;4953333;28;20054;-74
2022/10/04 04:04:17;;;;;;;26.17;12.50;;;9.60;99.90;;;;;;4953197;28;20042;-73
2022/10/04 04:07:04;;;;;;;22.50;12.02;;;9.50;99.90;;;;;;4972515;28;20086;-73
2022/10/04 04:09:39;;;;;;;24.98;12.00;;;9.50;99.90;;;;;;4970612;28;20129;-74
2022/10/04 04:12:12;;;;;;;25.77;12.15;;;9.50;99.90;;;;;;4973574;28;20392;-73
2022/10/04 04:14:40;;;;;;;19.58;12.40;;;9.60;99.90;;;;;;4960851;28;20050;-74
2022/10/04 04:17:37;;;;;;;24.95;12.63;;;9.60;99.90;;;;;;4961312;28;20042;-73
2022/10/04 04:20:14;;;;;;;22.10;12.25;;;9.60;99.90;;;;;;4979718;28;20050;-74
2022/10/04 04:22:43;;;;;;;22.58;12.68;;;9.60;99.90;;;;;;4970644;28;20066;-74
2022/10/04 04:25:14;;;;;;;26.15;12.25;;;9.50;99.90;;;;;;4974515;28;20068;-74
2022/10/04 04:27:42;;;;;;;24.35;12.20;;;9.50;99.90;;;;;;4969941;28;20867;-74
2022/10/04 04:30:15;;;;;;;24.17;12.48;;;9.50;99.90;;;;;;4947779;28;20051;-74
2022/10/04 04:32:51;;;;;;;27.52;13.30;;;9.50;99.90;;;;;;4975118;28;20458;-73
2022/10/04 04:35:31;;;;;;;26.02;12.73;;;9.40;99.90;;;;;;4958333;28;20051;-74
2022/10/04 04:38:13;;;;;;;26.58;12.68;;;9.40;99.90;;;;;;4972674;28;20046;-74
2022/10/04 04:40:39;;;;;;;21.67;13.52;;;9.40;99.90;;;;;;4956659;28;20035;-74
2022/10/04 04:43:05;;;;;;;25.27;12.20;;;9.30;99.90;;;;;;4962742;28;20535;-74
2022/10/04 04:45:32;;;;;;;24.55;12.98;;;9.30;99.90;;;;;;4952339;28;20063;-74
2022/10/04 04:48:00;;;;;;;24.88;13.07;;;9.30;99.90;;;;;;4947855;28;20047;-74
2022/10/04 04:50:32;;;;;;;26.80;13.30;;;9.30;99.90;;;;;;4947604;28;20612;-74
2022/10/04 04:53:21;;;;;;;28.17;13.48;;;9.30;99.90;;;;;;4963370;28;20149;-74
2022/10/04 04:55:50;;;;;;;25.98;12.98;;;9.30;99.90;;;;;;4953247;28;20125;-74
2022/10/04 04:58:20;;;;;;;26.17;13.88;;;9.30;99.90;;;;;;4948378;28;20097;-74
2022/10/04 05:01:14;;;;;;;23.05;13.35;;;9.30;99.90;;;;;;4968058;28;20390;-74
2022/10/04 05:03:40;;;;;;;27.65;13.85;;;9.30;99.90;;;;;;4966595;28;20837;-74
2022/10/04 05:06:26;;;;;;;24.38;13.43;;;9.30;99.90;;;;;;4931472;28;20396;-74
2022/10/04 05:08:51;;;;;;;23.20;13.75;;;9.30;99.90;;;;;;4969951;28;20050;-74
2022/10/04 05:11:20;;;;;;;23.13;13.63;;;9.30;99.90;;;;;;4949165;28;20046;-74
2022/10/04 05:13:48;;;;;;;28.70;13.63;;;9.30;99.90;;;;;;4966588;28;20054;-74
2022/10/04 05:16:37;;;;;;;21.85;13.75;;;9.30;99.90;;;;;;4963913;28;20134;-74
2022/10/04 05:19:20;;;;;;;24.60;14.02;;;9.30;99.90;;;;;;4964962;28;20376;-74
2022/10/04 05:21:48;;;;;;;25.73;13.65;;;9.20;99.90;;;;;;4965355;28;20122;-73
2022/10/04 05:24:27;;;;;;;24.48;14.25;;;9.20;99.90;;;;;;4973680;28;20541;-74
2022/10/04 05:26:56;;;;;;;21.02;13.52;;;9.20;99.90;;;;;;4972948;28;20051;-74
2022/10/04 05:29:36;;;;;;;22.27;13.30;;;9.20;99.90;;;;;;4957168;28;20038;-74
2022/10/04 05:32:14;;;;;;;26.70;14.60;;;9.20;99.90;;;;;;4972320;28;20050;-74
2022/10/04 05:34:44;;;;;;;23.88;13.32;;;9.20;99.90;;;;;;4959771;28;20271;-74
2022/10/04 05:37:19;;;;;;;26.60;14.80;;;9.20;99.90;;;;;;4961166;28;20419;-74
2022/10/04 05:39:56;;;;;;;25.23;15.13;;;9.20;99.90;;;;;;4949817;28;20050;-74
2022/10/04 05:42:34;;;;;;;24.20;13.73;;;9.20;99.90;;;;;;4954161;28;20061;-74
2022/10/04 05:45:00;;;;;;;23.25;13.43;;;9.30;99.90;;;;;;4968982;28;20198;-74
2022/10/04 05:47:29;;;;;;;23.52;14.25;;;9.20;99.90;;;;;;4955012;28;20042;-74
2022/10/04 05:49:57;;;;;;;26.48;14.45;;;9.20;99.90;;;;;;4936712;28;20133;-74
2022/10/04 05:52:34;;;;;;;21.52;14.25;;;9.20;99.90;;;;;;4950095;28;20046;-74
2022/10/04 05:55:33;;;;;;;29.92;15.48;;;9.20;99.90;;;;;;4943444;28;20046;-74
2022/10/04 05:57:59;;;;;;;25.35;15.15;;;9.20;99.90;;;;;;4972405;28;20101;-74
2022/10/04 06:00:41;;;;;;;22.77;14.83;;;9.20;99.90;;;;;;4954164;28;20145;-74
2022/10/04 06:03:22;;;;;;;25.25;15.38;;;9.20;99.90;;;;;;4955415;28;20108;-74
2022/10/04 06:06:00;;;;;;;21.58;15.18;;;9.30;99.90;;;;;;4957884;28;20054;-74
2022/10/04 06:08:45;;;;;;;26.77;15.63;;;9.30;99.90;;;;;;4971108;28;20042;-75
2022/10/04 06:11:17;;;;;;;26.90;15.50;;;9.30;99.90;;;;;;4969633;28;20047;-75
2022/10/04 06:14:01;;;;;;;27.70;14.63;;;9.30;99.90;;;;;;4969371;28;20085;-74
2022/10/04 06:16:47;;;;;;;29.23;16.13;;;9.40;99.90;;;;;;4955278;28;20599;-74
2022/10/04 06:19:31;;;;;;;;;;;9.40;99.90;;;;;;4971724;28;20453;-74
2022/10/04 06:22:03;;;;;;;26.23;15.73;;;9.50;99.90;;;;;;4968368;28;19945;-75
2022/10/04 06:24:33;;;;;;;30.48;16.42;;;9.50;99.90;;;;;;4968929;28;20039;-74
2022/10/04 06:27:05;;;;;;;27.38;15.50;;;9.50;99.90;;;;;;4960315;28;20133;-74
2022/10/04 06:29:37;;;;;;;26.20;15.77;;;9.60;99.90;;;;;;4959646;28;20038;-74
2022/10/04 06:32:19;;;;;;;25.17;15.45;;;9.60;99.90;;;;;;4952131;28;20063;-74
2022/10/04 06:35:06;;;;;;;24.30;15.27;;;9.60;99.90;;;;;;4953472;28;20073;-74
2022/10/04 06:37:37;;;;;;;27.50;16.05;;;9.60;99.90;;;;;;4956193;28;20514;-74
2022/10/04 06:40:19;;;;;;;29.40;15.88;;;9.60;99.90;;;;;;4960373;28;20537;-74
2022/10/04 06:42:45;;;;;;;24.83;14.65;;;9.60;99.90;;;;;;4947545;28;20545;-74
2022/10/04 06:45:32;;;;;;;30.27;15.60;;;9.70;99.90;;;;;;4952162;28;20046;-74
2022/10/04 06:48:20;;;;;;;22.50;14.50;;;9.70;99.90;;;;;;4972376;28;20291;-74
2022/10/04 06:51:14;;;;;;;25.25;15.23;;;9.70;99.90;;;;;;4957919;28;20125;-74
2022/10/04 06:53:42;;;;;;;30.08;15.02;;;9.70;99.90;;;;;;4972071;28;20074;-74
2022/10/04 06:56:22;;;;;;;27.48;16.50;;;9.70;99.90;;;;;;4973880;28;20125;-74
2022/10/04 06:59:16;;;;;;;24.48;15.57;;;9.80;99.90;;;;;;4973279;28;20038;-74
2022/10/04 07:01:56;;;;;;;26.63;15.40;;;9.90;99.90;;;;;;4970527;28;20051;-74
2022/10/04 07:04:32;;;;;;;27.92;15.43;;;10.00;99.90;;;;;;4965654;28;20037;-74
2022/10/04 07:10:44;;;;;;;23.88;15.57;;;10.30;99.90;;;;;;4937889;28;20031;-75
2022/10/04 07:13:39;;;;;;;30.42;15.88;;;10.40;99.90;;;;;;4975860;28;20541;-76
2022/10/04 07:16:22;;;;;;;24.40;14.33;;;10.60;99.90;;;;;;4970946;28;20520;-75
2022/10/04 07:19:12;;;;;;;21.47;14.10;;;10.70;99.90;;;;;;4975797;28;20286;-76
2022/10/04 07:22:06;;;;;;;25.33;14.10;;;10.80;99.90;;;;;;4977864;28;20309;-76
2022/10/04 07:24:48;;;;;;;28.50;14.67;;;10.80;99.90;;;;;;4968167;28;20293;-76
2022/10/04 07:27:22;;;;;;;20.37;12.87;;;10.80;99.90;;;;;;4977992;28;20278;-76
2022/10/04 07:29:54;;;;;;;20.97;13.23;;;10.80;99.90;;;;;;4977029;28;20807;-77
2022/10/04 07:32:28;;;;;;;25.53;14.50;;;10.80;99.90;;;;;;4987226;28;20302;-75
2022/10/04 07:35:12;;;;;;;24.02;13.43;;;10.80;99.90;;;;;;4982778;28;20281;-76
2022/10/04 07:38:04;;;;;;;19.57;12.97;;;10.80;99.90;;;;;;4952500;28;20050;-76
2022/10/04 07:40:37;;;;;;;18.70;13.17;;;10.80;99.90;;;;;;4935586;28;20299;-76
2022/10/04 07:43:25;;;;;;;25.63;13.30;;;10.80;99.90;;;;;;4953588;28;20852;-76
2022/10/04 07:46:05;;;;;;;19.17;13.33;;;10.90;99.90;;;;;;4968907;28;20337;-76
2022/10/04 07:48:31;;;;;;;17.77;12.53;;;10.90;99.90;;;;;;4949627;28;20286;-76
2022/10/04 07:51:18;;;;;;;22.17;12.90;;;11.00;99.90;;;;;;4957996;28;20296;-76
2022/10/04 07:54:12;;;;;;;27.67;14.00;;;11.10;99.90;;;;;;4972714;28;20391;-76
2022/10/04 07:57:04;;;;;;;23.87;13.57;;;11.20;99.90;;;;;;4955604;28;20301;-75
2022/10/04 07:59:39;;;;;;;23.43;13.00;;;11.30;99.90;;;;;;4949723;28;20286;-76
2022/10/04 08:02:26;;;;;;;20.70;12.50;;;11.40;99.90;;;;;;4973489;28;20342;-76
2022/10/04 08:05:00;;;;;;;20.13;13.13;;;11.50;99.90;;;;;;4949723;28;20488;-76
2022/10/04 08:07:46;;;;;;;26.83;14.10;;;11.60;99.90;;;;;;4965348;28;20313;-76
2022/10/04 08:10:50;;;;;;;28.83;13.57;;;11.80;99.90;;;;;;4957745;28;20373;-76
2022/10/04 08:13:34;;;;;;;20.93;14.27;;;12.00;99.90;;;;;;4974983;28;20835;-76
2022/10/04 08:16:11;;;;;;;19.90;13.67;;;12.20;99.90;;;;;;4975680;28;20293;-76
2022/10/04 08:19:00;;;;;;;18.20;12.57;;;12.40;99.90;;;;;;4974065;28;20294;-76
2022/10/04 08:21:38;;;;;;;20.57;12.80;;;12.50;99.90;;;;;;4972346;28;20312;-76
2022/10/04 08:24:28;;;;;;;25.87;13.20;;;12.50;99.90;;;;;;4969768;28;20296;-76
2022/10/04 08:27:28;;;;;;;24.10;12.57;;;12.60;99.90;;;;;;4959003;28;20373;-76
2022/10/04 08:30:09;;;;;;;21.23;13.33;;;12.70;99.90;;;;;;4974864;28;20339;-76
2022/10/04 08:33:11;;;;;;;20.43;12.83;;;12.80;99.90;;;;;;4962338;28;20636;-76
2022/10/04 08:36:07;;;;;;;22.97;12.03;;;13.00;99.90;;;;;;4969996;28;20692;-77
2022/10/04 08:38:45;;;;;;;18.30;10.77;;;13.10;99.90;;;;;;4928148;28;20289;-77
2022/10/04 08:41:53;;;;;;;21.03;12.40;;;13.20;99.90;;;;;;4959456;28;20365;-76
2022/10/04 08:44:40;;;;;;;23.47;12.50;;;13.30;99.90;;;;;;4972025;28;20293;-77
2022/10/04 08:47:37;;;;;;;18.30;11.00;;;13.30;99.70;;;;;;4967900;28;20282;-76
2022/10/04 08:50:41;;;;;;;21.37;12.53;;;13.40;99.40;;;;;;4962238;28;20301;-76
2022/10/04 08:53:47;;;;;;;20.03;11.87;;;13.50;99.10;;;;;;4973561;28;20320;-76
2022/10/04 08:56:40;;;;;;;23.80;12.05;;;13.60;97.80;;;;;;4966852;28;20315;-77
2022/10/04 08:59:41;;;;;;;21.57;11.60;;;13.60;98.20;;;;;;4994416;28;20533;-76
2022/10/04 09:02:31;;;;;;;18.00;12.10;;;13.70;97.50;;;;;;4984474;28;20797;-76
2022/10/04 09:05:22;;;;;;;21.10;11.50;;;13.80;96.70;;;;;;4978412;28;20348;-77
2022/10/04 09:08:13;;;;;;;20.57;13.00;;;13.90;96.70;;;;;;4977035;28;20796;-77
2022/10/04 09:11:06;;;;;;;22.37;13.10;;;14.10;95.90;;;;;;4981856;28;20294;-76
2022/10/04 09:14:11;;;;;;;21.00;12.73;;;14.20;95.20;;;;;;4964864;28;20284;-77
2022/10/04 09:16:40;;;;;;;20.20;12.87;;;14.30;95.00;;;;;;4957085;28;20281;-77
2022/10/04 09:19:24;;;;;;;18.50;12.97;;;14.50;95.10;;;;;;4977563;28;20774;-77
2022/10/04 09:21:53;;;;;;;22.23;13.57;;;14.50;94.50;;;;;;4981471;28;20395;-77
2022/10/04 09:24:33;;;;;;;22.43;14.10;;;14.60;93.90;;;;;;4960327;28;20289;-76
2022/10/04 09:27:22;;;;;;;23.63;13.73;;;14.60;92.60;;;;;;4971737;28;20289;-77
2022/10/04 09:29:48;;;;;;;19.97;13.73;;;14.60;92.80;;;;;;4978424;28;20293;-77
2022/10/04 09:32:58;;;;;;;22.43;14.07;;;14.70;92.70;;;;;;4975988;28;20298;-77
2022/10/04 09:35:33;;;;;;;22.27;13.80;;;14.80;91.90;;;;;;4975459;28;20059;-77
2022/10/04 09:38:23;;;;;;;23.45;14.02;;;14.70;91.50;;;;;;4975661;28;20702;-77
2022/10/04 09:41:27;;;;;;;22.57;12.83;;;14.70;91.70;;;;;;4970928;28;20049;-77
2022/10/04 09:43:56;;;;;;;19.93;13.33;;;14.70;91.80;;;;;;4915626;28;20295;-76
2022/10/04 09:47:19;;;;;;;23.17;13.67;;;14.70;91.70;;;;;;4954249;28;20773;-75
2022/10/04 09:50:25;;;;;;;24.03;13.77;;;14.70;91.00;;;;;;4932446;29;20699;-76
2022/10/04 09:53:17;;;;;;;24.40;12.68;;;14.70;90.10;;;;;;4949682;28;20290;-75
2022/10/04 09:56:05;;;;;;;16.70;11.87;;;14.80;90.10;;;;;;4972785;28;20060;-75
2022/10/04 09:58:40;;;;;;;19.83;11.63;;;14.80;90.10;;;;;;4958524;28;20623;-75
2022/10/04 10:01:28;;;;;;;18.85;11.85;;;15.00;90.10;;;;;;4948162;28;20349;-75
2022/10/04 10:04:27;;;;;;;17.80;11.30;;;15.10;88.90;;;;;;4978883;28;20069;-75
2022/10/04 10:07:27;;;;;;;20.50;10.87;;;15.30;86.80;;;;;;4980357;28;20361;-75
2022/10/04 10:16:17;;;;;;;19.37;9.30;;;15.70;85.70;;;;;;4973225;28;20766;-75
2022/10/04 10:19:17;;;;;;;15.73;9.50;;;15.80;85.00;;;;;;4957058;28;20417;-75
2022/10/04 10:22:27;;;;;;;14.30;8.10;;;15.70;84.40;;;;;;4977585;28;20301;-75
2022/10/04 10:25:20;;;;;;;15.80;8.93;;;15.80;85.10;;;;;;4960113;28;20309;-75
2022/10/04 10:28:10;;;;;;;13.17;8.70;;;15.80;83.40;;;;;;4957164;28;20347;-75
2022/10/04 10:31:08;;;;;;;15.60;8.70;;;15.80;85.10;;;;;;4972173;28;20325;-75
2022/10/04 10:33:59;;;;;;;20.50;8.83;;;15.90;84.40;;;;;;4973235;28;20286;-75
2022/10/04 10:36:36;;;;;;;14.63;9.10;;;16.00;83.00;;;;;;4978900;28;20286;-75
2022/10/04 10:39:30;;;;;;;13.20;8.20;;;16.00;82.60;;;;;;4974108;28;20294;-75
2022/10/04 10:42:17;;;;;;;15.43;9.17;;;16.00;83.50;;;;;;4965854;28;20425;-75
2022/10/04 10:45:03;;;;;;;14.67;8.57;;;16.20;82.70;;;;;;4970534;28;20287;-75
2022/10/04 10:47:38;;;;;;;11.20;7.63;;;16.20;82.90;;;;;;4970189;28;20685;-75
2022/10/04 10:50:32;;;;;;;13.10;7.88;;;16.30;82.20;;;;;;4966027;28;20812;-75
2022/10/04 10:53:33;;;;;;;14.77;8.23;;;16.40;81.60;;;;;;4970198;28;20486;-75
2022/10/04 10:56:07;;;;;;;12.47;7.60;;;16.40;81.30;;;;;;4915537;28;20768;-75
2022/10/04 10:58:49;;;;;;;14.02;7.80;;;16.40;81.40;;;;;;4974186;28;20282;-77
2022/10/04 11:01:40;;;;;;;14.17;8.57;;;16.40;81.50;;;;;;4975933;28;20047;-77
2022/10/04 11:04:11;;;;;;;14.73;8.07;;;16.40;81.30;;;;;;4980782;28;20907;-76
2022/10/04 11:07:06;;;;;;;14.37;7.87;;;16.40;80.90;;;;;;4954076;28;20282;-75
2022/10/04 11:09:50;;;;;;;13.80;7.70;;;16.40;80.80;;;;;;4976027;28;20273;-75
2022/10/04 11:12:46;;;;;;;13.60;7.97;;;16.30;79.80;;;;;;4969168;28;20766;-75
2022/10/04 11:15:39;;;;;;;16.77;8.67;;;16.30;80.30;;;;;;4976222;28;20667;-75
2022/10/04 11:18:48;;;;;;;14.40;8.50;;;16.20;81.20;;;;;;4968876;28;20769;-75
2022/10/04 11:21:45;;;;;;;10.90;7.80;;;16.40;81.30;;;;;;4968981;28;20301;-75
2022/10/04 11:24:43;;;;;;;15.23;8.33;;;16.60;80.90;;;;;;4969344;28;20275;-75
2022/10/04 11:27:41;;;;;;;14.13;8.40;;;16.60;79.80;;;;;;4956756;28;20283;-76
2022/10/04 11:30:07;;;;;;;13.23;8.47;;;16.60;78.60;;;;;;4881318;28;20282;-75
2022/10/04 11:32:52;;;;;;;12.70;8.40;;;16.50;79.50;;;;;;4974871;28;20318;-76
2022/10/04 11:35:35;;;;;;;13.87;8.67;;;16.40;79.80;;;;;;4956902;28;20318;-76
2022/10/04 11:38:20;;;;;;;12.37;7.90;;;16.40;80.30;;;;;;4969964;28;20288;-75
2022/10/04 11:41:00;;;;;;;12.48;7.70;;;16.50;80.00;;;;;;4967046;28;20847;-76
2022/10/04 11:43:25;;;;;;;14.23;7.73;;;16.50;79.40;;;;;;4966555;28;20144;-75
2022/10/04 11:46:13;;;;;;;13.90;8.50;;;16.60;79.70;;;;;;4964643;28;20325;-75
2022/10/04 11:49:04;;;;;;;13.47;7.47;;;16.60;80.10;;;;;;4974363;28;20046;-76
2022/10/04 11:52:18;;;;;;;13.50;7.30;;;16.70;79.50;;;;;;4954819;28;20282;-76
2022/10/04 11:55:16;;;;;;;11.97;6.50;;;16.80;78.60;;;;;;4965263;28;20281;-75
2022/10/04 11:58:25;;;;;;;13.07;7.67;;;16.90;78.40;;;;;;4976771;28;20282;-75
2022/10/04 12:00:53;;;;;;;11.10;6.60;;;16.90;77.60;;;;;;4945650;28;20297;-77
2022/10/04 12:03:52;;;;;;;11.07;5.53;;;16.90;77.90;;;;;;4967584;28;20667;-75
2022/10/04 12:06:33;;;;;;;10.37;6.37;;;17.00;77.80;;;;;;4965403;28;20301;-75
2022/10/04 12:09:11;;;;;;;9.83;5.13;;;17.00;77.70;;;;;;4947826;28;20289;-75
2022/10/04 12:15:30;;;;;;;8.80;5.97;;;17.10;76.30;;;;;;4974352;28;20316;-74
2022/10/04 12:18:14;;;;;;;11.27;5.23;;;17.20;75.70;;;;;;4964560;28;20290;-74
2022/10/04 12:20:56;;;;;;;11.10;5.87;;;17.20;76.20;;;;;;4968576;28;20630;-74
2022/10/04 12:23:44;;;;;;;10.03;5.20;;;17.20;76.30;;;;;;4970360;28;20290;-74
2022/10/04 12:26:18;;;;;;;11.47;5.50;;;17.30;76.30;;;;;;4935757;28;20286;-75
2022/10/04 12:29:10;;;;;;;8.23;4.78;;;17.40;75.70;;;;;;4962910;28;20301;-74
2022/10/04 12:31:48;;;;;;;8.30;4.77;;;17.50;74.80;;;;;;4966368;28;20141;-74
2022/10/04 12:34:24;;;;;;;8.33;4.53;;;17.60;74.60;;;;;;4947522;28;20282;-74
2022/10/04 12:37:14;;;;;;;8.33;4.50;;;17.60;74.00;;;;;;4965811;28;20289;-74
2022/10/04 12:39:51;;;;;;;8.67;4.80;;;17.60;73.90;;;;;;4954428;28;20295;-74
2022/10/04 12:42:28;;;;;;;9.20;5.63;;;17.60;73.80;;;;;;4974068;28;20314;-74
2022/10/04 12:45:22;;;;;;;10.17;4.63;;;17.70;74.40;;;;;;4953257;28;20285;-74
2022/10/04 12:48:08;;;;;;;8.07;4.40;;;17.80;73.10;;;;;;4969438;28;20633;-74
2022/10/04 12:50:53;;;;;;;6.53;4.17;;;17.80;72.40;;;;;;4957728;28;20623;-75
2022/10/04 12:53:33;;;;;;;9.95;3.88;;;17.80;72.10;;;;;;4968020;28;20278;-74
2022/10/04 12:56:05;;;;;;;7.60;4.43;;;17.90;72.70;;;;;;4968979;28;20070;-74
2022/10/04 12:58:56;;;;;;;8.93;4.13;;;17.90;72.50;;;;;;4973564;28;20306;-74
2022/10/04 13:01:43;;;;;;;8.10;4.13;;;18.00;71.50;;;;;;4955859;28;20401;-74
2022/10/04 13:04:19;;;;;;;7.70;3.97;;;17.90;70.90;;;;;;4987884;28;20293;-74
2022/10/04 13:07:09;;;;;;;7.33;4.10;;;18.00;71.10;;;;;;4961492;28;20843;-74
2022/10/04 13:09:47;;;;;;;5.90;3.67;;;18.10;71.10;;;;;;4973755;28;20466;-76
2022/10/04 13:12:39;;;;;;;5.80;3.37;;;18.20;70.50;;;;;;4971928;28;20777;-74
2022/10/04 13:15:22;;;;;;;8.37;3.93;;;18.30;68.90;;;;;;4953353;28;20054;-75
2022/10/04 13:17:53;;;;;;;7.43;3.97;;;18.30;70.00;;;;;;4974205;28;20810;-73
2022/10/04 13:20:39;;;;;;;7.67;4.50;;;18.20;70.10;;;;;;4953871;28;20129;-74
2022/10/04 13:23:10;;;;;;;;;;;18.20;69.50;;;;;;4968825;28;20067;-74
2022/10/04 13:26:04;;;;;;;8.77;3.83;;;18.20;68.90;;;;;;4959723;28;20394;-74
2022/10/04 13:28:39;;;;;;;7.20;3.83;;;18.20;69.40;;;;;;4984476;28;20749;-74
2022/10/04 13:31:22;;;;;;;7.82;3.85;;;18.20;68.40;;;;;;4967958;28;20685;-73
2022/10/04 13:34:05;;;;;;;9.27;3.90;;;18.20;68.90;;;;;;4952142;28;20069;-74
2022/10/04 13:36:50;;;;;;;8.23;4.30;;;18.20;69.50;;;;;;4976018;28;20501;-74
2022/10/04 13:39:33;;;;;;;6.57;3.75;;;18.20;69.90;;;;;;4960325;28;20117;-73
2022/10/04 13:42:28;;;;;;;7.50;3.17;;;18.10;70.30;;;;;;4947693;28;20051;-73
2022/10/04 13:45:17;;;;;;;8.77;3.87;;;18.10;67.80;;;;;;4954406;28;20051;-74
2022/10/04 13:48:12;;;;;;;6.77;3.27;;;18.00;69.30;;;;;;4972704;28;20490;-74
2022/10/04 13:51:20;;;;;;;7.10;3.35;;;18.00;69.50;;;;;;4971136;28;20055;-73
2022/10/04 13:57:19;;;;;;;4.17;2.50;;;18.10;69.50;;;;;;4961981;28;20180;-74
2022/10/04 13:59:58;;;;;;;5.67;2.53;;;18.20;67.20;;;;;;4918716;28;20058;-73
2022/10/04 14:02:51;;;;;;;3.97;2.47;;;18.30;68.40;;;;;;4972765;28;20238;-73
2022/10/04 14:05:40;;;;;;;6.87;3.23;;;18.40;68.10;;;;;;4976994;28;20097;-74